METAR Data
IDs: Format: Raw Decoded Include TAF

Data at: 1752 UTC 26 Oct 2021

KCXW 261735Z AUTO 15008KT 10SM OVC055 17/10 A3003 RMK A01
KCXW 261715Z AUTO VRB03G11KT 10SM OVC050 17/10 A3005 RMK A01
KCXW 261655Z AUTO 15008KT 10SM OVC047 16/10 A3007 RMK A01
KCXW 261635Z AUTO 15007KT 10SM OVC045 15/09 A3007 RMK A01
KCXW 261615Z AUTO 16005G11KT 10SM BKN047 15/09 A3007 RMK A01
KCXW 261550Z AUTO 11006G11KT 10SM OVC043 15/09 A3008 RMK A01
KCXW 261535Z AUTO 12005KT 10SM OVC043 14/09 A3009 RMK A01
KCXW 261515Z AUTO 00000KT 10SM SCT044 SCT060 14/09 A3010 RMK A01
KCXW 261455Z AUTO 09008KT 10SM CLR 13/09 A3009 RMK A01
KCXW 261435Z AUTO 06008KT 10SM CLR 13/09 A3009 RMK A01
KCXW 261415Z AUTO 06007KT 10SM CLR 12/09 A3010 RMK A01
KCXW 261355Z AUTO 07006KT 10SM FEW065 12/09 A3010 RMK A01
KCXW 261335Z AUTO 07005KT 10SM SCT065 11/10 A3009 RMK A01
KCXW 261315Z AUTO 04007KT 10SM BKN065 10/10 A3009 RMK A01
KCXW 261255Z AUTO 04005KT 10SM BKN055 OVC070 10/10 A3009 RMK A01
KCXW 261235Z AUTO 04004KT 10SM OVC055 10/09 A3009 RMK A01
KCXW 261215Z AUTO 00000KT 10SM OVC055 10/09 A3009 RMK A01
KCXW 261155Z AUTO 06003KT 10SM BKN055 OVC065 10/09 A3008 RMK A01
KCXW 261135Z AUTO 00000KT 10SM OVC060 10/09 A3008 RMK A01
KCXW 261115Z AUTO 00000KT 10SM BKN046 OVC055 10/09 A3008 RMK A01
KCXW 261055Z AUTO 00000KT 10SM SCT043 SCT049 BKN080 10/09 A3007 RMK A01
KCXW 261035Z AUTO 05003KT 10SM FEW050 BKN080 10/09 A3006 RMK A01
KCXW 261010Z AUTO 05003KT 10SM BKN075 BKN085 10/09 A3006 RMK A01
KCXW 260955Z AUTO 00000KT 10SM BKN075 BKN085 11/09 A3006 RMK A01
KCXW 260935Z AUTO 07004KT 10SM BKN075 11/09 A3005 RMK A01
KCXW 260915Z AUTO 06005KT 10SM BKN075 BKN090 11/09 A3005 RMK A01
KCXW 260855Z AUTO 06006KT 10SM BKN075 11/09 A3005 RMK A01
KCXW 260835Z AUTO 07004KT 10SM BKN075 12/09 A3005 RMK A01
KCXW 260815Z AUTO 08004KT 10SM FEW049 BKN075 12/10 A3005 RMK A01
KCXW 260755Z AUTO 06004KT 10SM FEW031 FEW043 BKN075 12/09 A3005 RMK A01
KCXW 260735Z AUTO 06005KT 10SM SCT031 BKN042 OVC075 12/09 A3005 RMK A01
KCXW 260715Z AUTO 04003KT 10SM FEW026 SCT032 BKN048 12/09 A3005 RMK A01
KCXW 260655Z AUTO 04003KT 4SM HZ FEW030 SCT034 BKN050 12/09 A3005 RMK A01
KCXW 260635Z AUTO 00000KT 10SM SCT035 BKN048 BKN055 12/10 A3005 RMK A01
KCXW 260615Z AUTO 08004KT 10SM FEW030 BKN037 BKN047 13/10 A3005 RMK A01
KCXW 260555Z AUTO 08006KT 10SM FEW030 SCT036 BKN060 13/10 A3004 RMK A01
KCXW 260535Z AUTO 00000KT 10SM FEW035 SCT048 BKN060 13/11 A3005 RMK A01
KCXW 260515Z AUTO 07005KT 10SM FEW035 FEW049 BKN065 13/11 A3005 RMK A01
KCXW 260455Z AUTO 04003KT 10SM FEW037 FEW049 SCT060 14/11 A3005 RMK A01
KCXW 260430Z AUTO 00000KT 10SM FEW050 SCT065 14/11 A3005 RMK A01
KCXW 260415Z AUTO 00000KT 2SM HZ SCT065 SCT075 14/11 A3005 RMK A01
KCXW 260350Z AUTO 00000KT 10SM SCT065 SCT075 15/11 A3004 RMK A01
KCXW 260335Z AUTO 00000KT 5SM HZ FEW034 SCT065 14/11 A3004 RMK A01
KCXW 260315Z AUTO 00000KT 10SM FEW034 SCT070 14/12 A3004 RMK A01
KCXW 260255Z AUTO 04007KT 10SM FEW035 FEW065 SCT075 15/12 A3003 RMK A01
KCXW 260235Z AUTO 04006KT 10SM FEW037 FEW070 15/12 A3003 RMK A01
KCXW 260210Z AUTO 04007KT 10SM FEW038 15/12 A3003 RMK A01
KCXW 260150Z AUTO 04006KT 10SM FEW039 16/12 A3003 RMK A01
KCXW 260130Z AUTO 04004KT 10SM FEW040 17/12 A3003 RMK A01
KCXW 260115Z AUTO 02005KT 10SM FEW040 17/12 A3002 RMK A01
KCXW 260050Z AUTO 04005KT 10SM FEW036 FEW044 17/13 A3001 RMK A01
KCXW 260030Z AUTO 04005KT 10SM FEW036 18/13 A3001 RMK A01
KCXW 260010Z AUTO 05004KT 10SM FEW036 17/14 A3000 RMK A01
KCXW 252355Z AUTO 06004KT 10SM CLR 17/15 A2999 RMK A01
KCXW 252330Z AUTO 03003KT 10SM CLR 20/14 A2998 RMK A01
KCXW 252310Z AUTO 04003KT 9SM CLR 21/13 A2998 RMK A01
KCXW 252250Z AUTO 02003KT 5SM HZ CLR 22/12 A2998 RMK A01
KCXW 252230Z AUTO 01006KT 10SM CLR 23/12 A2997 RMK A01
KCXW 252210Z AUTO 35007KT 10SM CLR 23/12 A2997 RMK A01
KCXW 252155Z AUTO 01006KT 10SM CLR 24/12 A2997 RMK A01
KCXW 252130Z AUTO 35008KT 10SM CLR 24/12 A2997 RMK A01
KCXW 252110Z AUTO 34007KT 9SM CLR 24/12 A2996 RMK A01
KCXW 252050Z AUTO 34006KT 10SM CLR 24/11 A2996 RMK A01
KCXW 252035Z AUTO 35007KT 10SM CLR 23/11 A2996 RMK A01
KCXW 252010Z AUTO VRB06KT 10SM CLR 23/12 A2995 RMK A01
KCXW 251955Z AUTO 34005G15KT 10SM CLR 23/12 A2995 RMK A01
KCXW 251930Z AUTO 31007KT 10SM CLR 23/13 A2995 RMK A01
KCXW 251915Z AUTO 31008KT 10SM CLR 23/12 A2996 RMK A01
KCXW 251855Z AUTO VRB06KT 10SM CLR 23/12 A2996 RMK A01
KCXW 251835Z AUTO 31008KT 10SM CLR 23/13 A2997 RMK A01
KCXW 251815Z AUTO 32008KT 10SM CLR 22/12 A2998 RMK A01
KCXW 251750Z AUTO 29006KT 10SM CLR 22/13 A2998 RMK A01
KCXW 251730Z AUTO 34009KT 10SM CLR 22/13 A2998 RMK A01
KCXW 251710Z AUTO 33010KT 10SM CLR 22/14 A2998 RMK A01
KCXW 251650Z AUTO 34009KT 300V020 10SM CLR 21/13 A2999 RMK A01
KCXW 251630Z AUTO 32009KT 10SM CLR 21/13 A2998 RMK A01
KCXW 251610Z AUTO 34010G16KT 10SM CLR 21/12 A2998 RMK A01
KCXW 251550Z AUTO 10SM CLR RMK A01 PNO
KCXW 251530Z AUTO 32008G13KT 10SM CLR 20/14 A2997 RMK A01
KCXW 251510Z AUTO 30010KT 10SM CLR 20/14 A2996 RMK A01
KCXW 251450Z AUTO 30007KT 10SM CLR 19/15 A2996 RMK A01
KCXW 251430Z AUTO 28006KT 10SM CLR 18/15 A2995 RMK A01
KCXW 251410Z AUTO 29004KT 10SM CLR 17/15 A2995 RMK A01
KCXW 251350Z AUTO 27006KT 10SM CLR 17/15 A2994 RMK A01
KCXW 251330Z AUTO 27007KT 10SM CLR 16/15 A2994 RMK A01
KCXW 251310Z AUTO 26006KT 10SM CLR 16/15 A2994 RMK A01
KCXW 251250Z AUTO 28006KT 10SM CLR 16/15 A2993 RMK A01
KCXW 251230Z AUTO 26006KT 10SM CLR 15/15 A2993 RMK A01
KCXW 251210Z AUTO 28006KT 10SM FEW033 FEW055 16/16 A2992 RMK A01
KCXW 251150Z AUTO 25004KT 10SM BKN032 BKN042 BKN055 15/15 A2992 RMK A01
KCXW 251130Z AUTO 26005KT 10SM FEW028 SCT033 BKN042 16/16 A2992 RMK A01
KCXW 251110Z AUTO 26003KT 10SM SCT034 BKN045 BKN055 16/15 A2991 RMK A01
KCXW 251050Z AUTO 28005KT 10SM SCT034 SCT041 SCT046 17/16 A2991 RMK A01
KCXW 251030Z AUTO 28005KT 10SM FEW026 FEW033 FEW039 17/16 A2991 RMK A01
KCXW 251010Z AUTO 29005KT 10SM FEW026 FEW034 17/17 A2990 RMK A01
KCXW 250950Z AUTO 29006KT 10SM CLR 18/17 A2989 RMK A01
KCXW 250930Z AUTO 29005KT 10SM CLR 18/17 A2989 RMK A01
KCXW 250910Z AUTO 30006KT 10SM CLR 18/17 A2988 RMK A01
KCXW 250850Z AUTO 29008KT 10SM CLR 19/18 A2988 RMK A01
KCXW 250830Z AUTO 28005KT 10SM FEW015 FEW029 FEW041 19/18 A2987 RMK A01
KCXW 250810Z AUTO 28008G13KT 10SM BKN016 BKN027 BKN037 20/19 A2986 RMK A01
KCXW 250750Z AUTO 28010KT 10SM OVC015 20/20 A2985 RMK A01
KCXW 250730Z AUTO 27007KT 10SM BKN016 BKN036 BKN050 20/20 A2984 RMK A01
KCXW 250710Z AUTO 27007KT 10SM FEW036 SCT045 BKN050 20/20 A2983 RMK A01
KCXW 250650Z AUTO 24006KT 10SM SCT040 BKN047 OVC060 20/20 A2982 RMK A01
KCXW 250630Z AUTO 00000KT 10SM BKN042 OVC050 20/20 A2982 RMK A01
KCXW 250610Z AUTO 16004KT 10SM FEW043 OVC050 20/20 A2982 RMK A01